Cruise inventory

RRS Discovery D48_2

Cruise summary report

Cruise Info. 
Ship name (ship code)RRS Discovery (74E3)
Cruise identifierD48_2
Cruise period1972-08-01 — 1972-08-22
StatusCompleted
Port of departureSanta Cruz de Tenerife, Spain
Port of returnBarry, United Kingdom
ObjectivesThe primary objective was a study of the physical and chemical processes in a region of coastal upwelling off North-west Africa combined with a biological sampling programme in the same area. This leg of the cruise undertook an intensive survey of a 25x25 mile box off Cabo Bojador, including two time series stations of 98 and 49 hours duration with sampling intervals of 60 and 30 minutes respectively.
Chief scientistKenneth F Bowden (University of Liverpool Department of Oceanography)
ProjectCINECA
Cruise reportRRS Discovery D48_2 cruise report d48.pdf — access key 'C' (0.64 MB) 
Ocean/sea areas 
GeneralNorth East Atlantic Ocean (limit 40W)
SpecificNW African coast off Cabo Bojador
Measurements 
Physical oceanography 
CTD stationsQuantity: number of stations = 246
Description: Bissett Berman STD system type 9006 time series st.8050 98 hourly std dips;time series st.8051 98 half hourly std dips
Current metersQuantity: 2
Description: 3 moorings for about 10 days
Current profiler (eg ADCP)Quantity: 22
Description: 13 to 250m,9 to 100m
Chemical oceanography 
OxygenQuantity: 50
Phosphate
NitrateQuantity: 50
SilicateQuantity: 50
Meteorology 
Occasional standard measurements
Data held at BODC 
Series/Profiles 
246  CTD/STD cast
Vertical spatial coordinates
Salinity of the water column
Temperature of the water column
Vertical spatial coordinates
Salinity of the water column
Temperature of the water column

BODC idDate/TimeLocationDoc.
831431972-08-10 20:00 26° 9' 13" N  14° 44' 5" W  View metadata report for BODC series reference number 83143
831551972-08-10 20:30 26° 9' 13" N  14° 44' 5" W  View metadata report for BODC series reference number 83155
831671972-08-10 21:00 26° 9' 13" N  14° 44' 5" W  View metadata report for BODC series reference number 83167
831791972-08-10 21:30 26° 9' 13" N  14° 44' 5" W  View metadata report for BODC series reference number 83179
831801972-08-10 22:00 26° 9' 13" N  14° 44' 5" W  View metadata report for BODC series reference number 83180
831921972-08-10 22:30 26° 9' 13" N  14° 44' 5" W  View metadata report for BODC series reference number 83192
832111972-08-10 23:00 26° 9' 13" N  14° 44' 5" W  View metadata report for BODC series reference number 83211
832231972-08-10 23:30 26° 9' 13" N  14° 44' 5" W  View metadata report for BODC series reference number 83223
832351972-08-11 00:00 26° 9' 13" N  14° 44' 5" W  View metadata report for BODC series reference number 83235
832471972-08-11 00:30 26° 9' 13" N  14° 44' 5" W  View metadata report for BODC series reference number 83247
832591972-08-11 01:00 26° 9' 13" N  14° 44' 5" W  View metadata report for BODC series reference number 83259
832601972-08-11 01:30 26° 9' 13" N  14° 44' 5" W  View metadata report for BODC series reference number 83260
832721972-08-11 02:00 26° 9' 13" N  14° 44' 5" W  View metadata report for BODC series reference number 83272
832841972-08-11 02:30 26° 9' 13" N  14° 44' 5" W  View metadata report for BODC series reference number 83284
832961972-08-11 03:00 26° 9' 13" N  14° 44' 5" W  View metadata report for BODC series reference number 83296
828951972-08-10 08:30 26° 9' 13" N  14° 44' 5" W  View metadata report for BODC series reference number 82895
829021972-08-10 09:00 26° 9' 13" N  14° 44' 5" W  View metadata report for BODC series reference number 82902
829141972-08-10 09:30 26° 9' 13" N  14° 44' 5" W  View metadata report for BODC series reference number 82914
829261972-08-10 10:00 26° 9' 13" N  14° 44' 5" W  View metadata report for BODC series reference number 82926
829381972-08-10 10:30 26° 9' 13" N  14° 44' 5" W  View metadata report for BODC series reference number 82938
829511972-08-10 11:30 26° 9' 13" N  14° 44' 5" W  View metadata report for BODC series reference number 82951
829631972-08-10 12:00 26° 9' 13" N  14° 44' 5" W  View metadata report for BODC series reference number 82963
829751972-08-10 12:30 26° 9' 13" N  14° 44' 5" W  View metadata report for BODC series reference number 82975
829871972-08-10 13:00 26° 9' 13" N  14° 44' 5" W  View metadata report for BODC series reference number 82987
829991972-08-10 13:30 26° 9' 13" N  14° 44' 5" W  View metadata report for BODC series reference number 82999
830021972-08-10 14:00 26° 9' 13" N  14° 44' 5" W  View metadata report for BODC series reference number 83002
830141972-08-10 14:30 26° 9' 13" N  14° 44' 5" W  View metadata report for BODC series reference number 83014
830261972-08-10 15:00 26° 9' 13" N  14° 44' 5" W  View metadata report for BODC series reference number 83026
830381972-08-10 15:30 26° 9' 13" N  14° 44' 5" W  View metadata report for BODC series reference number 83038
830511972-08-10 16:00 26° 9' 13" N  14° 44' 5" W  View metadata report for BODC series reference number 83051
827301972-08-10 01:30 26° 9' 13" N  14° 44' 5" W  View metadata report for BODC series reference number 82730
827421972-08-10 02:00 26° 9' 13" N  14° 44' 5" W  View metadata report for BODC series reference number 82742
827541972-08-10 02:30 26° 9' 13" N  14° 44' 5" W  View metadata report for BODC series reference number 82754
827661972-08-10 03:00 26° 9' 13" N  14° 44' 5" W  View metadata report for BODC series reference number 82766
827781972-08-10 03:30 26° 9' 13" N  14° 44' 5" W  View metadata report for BODC series reference number 82778
827911972-08-10 04:00 26° 9' 13" N  14° 44' 5" W  View metadata report for BODC series reference number 82791
828091972-08-10 04:30 26° 9' 13" N  14° 44' 5" W  View metadata report for BODC series reference number 82809
828101972-08-10 05:00 26° 9' 13" N  14° 44' 5" W  View metadata report for BODC series reference number 82810
828221972-08-10 05:30 26° 9' 13" N  14° 44' 5" W  View metadata report for BODC series reference number 82822
828341972-08-10 06:00 26° 9' 13" N  14° 44' 5" W  View metadata report for BODC series reference number 82834
828461972-08-10 06:30 26° 9' 13" N  14° 44' 5" W  View metadata report for BODC series reference number 82846
828581972-08-10 07:00 26° 9' 13" N  14° 44' 5" W  View metadata report for BODC series reference number 82858
828711972-08-10 07:30 26° 9' 13" N  14° 44' 5" W  View metadata report for BODC series reference number 82871
828831972-08-10 08:00 26° 9' 13" N  14° 44' 5" W  View metadata report for BODC series reference number 82883
821391972-08-08 16:00 26° 20' 25" N  14° 49' 29" W  View metadata report for BODC series reference number 82139
821401972-08-08 17:00 26° 20' 25" N  14° 49' 29" W  View metadata report for BODC series reference number 82140
821521972-08-08 18:00 26° 20' 25" N  14° 49' 29" W  View metadata report for BODC series reference number 82152
821641972-08-08 19:00 26° 20' 25" N  14° 49' 29" W  View metadata report for BODC series reference number 82164
821761972-08-08 20:00 26° 20' 25" N  14° 49' 29" W  View metadata report for BODC series reference number 82176
821881972-08-08 21:00 26° 20' 25" N  14° 49' 29" W  View metadata report for BODC series reference number 82188
822071972-08-08 22:00 26° 20' 25" N  14° 49' 29" W  View metadata report for BODC series reference number 82207
822191972-08-08 23:00 26° 20' 25" N  14° 49' 29" W  View metadata report for BODC series reference number 82219
822201972-08-09 02:00 26° 9' 13" N  14° 44' 5" W  View metadata report for BODC series reference number 82220
822321972-08-09 02:30 26° 9' 13" N  14° 44' 5" W  View metadata report for BODC series reference number 82232
822441972-08-09 03:00 26° 9' 13" N  14° 44' 5" W  View metadata report for BODC series reference number 82244
822561972-08-09 03:30 26° 9' 13" N  14° 44' 5" W  View metadata report for BODC series reference number 82256
822681972-08-09 04:00 26° 9' 13" N  14° 44' 5" W  View metadata report for BODC series reference number 82268
822811972-08-09 04:30 26° 9' 13" N  14° 44' 5" W  View metadata report for BODC series reference number 82281
822931972-08-09 05:00 26° 9' 13" N  14° 44' 5" W  View metadata report for BODC series reference number 82293
823001972-08-09 05:30 26° 9' 13" N  14° 44' 5" W  View metadata report for BODC series reference number 82300
823121972-08-09 06:00 26° 9' 13" N  14° 44' 5" W  View metadata report for BODC series reference number 82312
823241972-08-09 06:30 26° 9' 13" N  14° 44' 5" W  View metadata report for BODC series reference number 82324
823361972-08-09 07:00 26° 9' 13" N  14° 44' 5" W  View metadata report for BODC series reference number 82336
823481972-08-09 07:30 26° 9' 13" N  14° 44' 5" W  View metadata report for BODC series reference number 82348
823611972-08-09 08:00 26° 9' 13" N  14° 44' 5" W  View metadata report for BODC series reference number 82361
823731972-08-09 08:30 26° 9' 13" N  14° 44' 5" W  View metadata report for BODC series reference number 82373
823851972-08-09 09:00 26° 9' 13" N  14° 44' 5" W  View metadata report for BODC series reference number 82385
823971972-08-09 09:30 26° 9' 13" N  14° 44' 5" W  View metadata report for BODC series reference number 82397
824041972-08-09 10:00 26° 9' 13" N  14° 44' 5" W  View metadata report for BODC series reference number 82404
824161972-08-09 10:30 26° 9' 13" N  14° 44' 5" W  View metadata report for BODC series reference number 82416
824281972-08-09 11:00 26° 9' 13" N  14° 44' 5" W  View metadata report for BODC series reference number 82428
824411972-08-09 11:30 26° 9' 13" N  14° 44' 5" W  View metadata report for BODC series reference number 82441
824531972-08-09 12:00 26° 9' 13" N  14° 44' 5" W  View metadata report for BODC series reference number 82453
824651972-08-09 12:30 26° 9' 13" N  14° 44' 5" W  View metadata report for BODC series reference number 82465
824771972-08-09 13:00 26° 9' 13" N  14° 44' 5" W  View metadata report for BODC series reference number 82477
824891972-08-09 13:30 26° 9' 13" N  14° 44' 5" W  View metadata report for BODC series reference number 82489
824901972-08-09 14:00 26° 9' 13" N  14° 44' 5" W  View metadata report for BODC series reference number 82490
825081972-08-09 14:30 26° 9' 13" N  14° 44' 5" W  View metadata report for BODC series reference number 82508
825211972-08-09 15:00 26° 9' 13" N  14° 44' 5" W  View metadata report for BODC series reference number 82521
825331972-08-09 15:30 26° 9' 13" N  14° 44' 5" W  View metadata report for BODC series reference number 82533
825451972-08-09 16:00 26° 9' 13" N  14° 44' 5" W  View metadata report for BODC series reference number 82545
825571972-08-09 16:30 26° 9' 13" N  14° 44' 5" W  View metadata report for BODC series reference number 82557
825691972-08-09 17:00 26° 9' 13" N  14° 44' 5" W  View metadata report for BODC series reference number 82569
825701972-08-09 17:30 26° 9' 13" N  14° 44' 5" W  View metadata report for BODC series reference number 82570
825821972-08-09 18:00 26° 9' 13" N  14° 44' 5" W  View metadata report for BODC series reference number 82582
825941972-08-09 18:30 26° 9' 13" N  14° 44' 5" W  View metadata report for BODC series reference number 82594
826011972-08-09 19:00 26° 9' 13" N  14° 44' 5" W  View metadata report for BODC series reference number 82601
826131972-08-09 19:30 26° 9' 13" N  14° 44' 5" W  View metadata report for BODC series reference number 82613
826251972-08-09 20:00 26° 9' 13" N  14° 44' 5" W  View metadata report for BODC series reference number 82625
826371972-08-09 20:30 26° 9' 13" N  14° 44' 5" W  View metadata report for BODC series reference number 82637
826491972-08-09 21:00 26° 9' 13" N  14° 44' 5" W  View metadata report for BODC series reference number 82649
826501972-08-09 21:30 26° 9' 13" N  14° 44' 5" W  View metadata report for BODC series reference number 82650
826621972-08-09 22:00 26° 9' 13" N  14° 44' 5" W  View metadata report for BODC series reference number 82662
826741972-08-09 22:30 26° 9' 13" N  14° 44' 5" W  View metadata report for BODC series reference number 82674
826861972-08-09 23:00 26° 9' 13" N  14° 44' 5" W  View metadata report for BODC series reference number 82686
826981972-08-09 23:30 26° 9' 13" N  14° 44' 5" W  View metadata report for BODC series reference number 82698
827051972-08-10 00:00 26° 9' 13" N  14° 44' 5" W  View metadata report for BODC series reference number 82705
827171972-08-10 00:30 26° 9' 13" N  14° 44' 5" W  View metadata report for BODC series reference number 82717
827291972-08-10 01:00 26° 9' 13" N  14° 44' 5" W  View metadata report for BODC series reference number 82729
819591972-08-07 23:00 26° 20' 25" N  14° 49' 29" W  View metadata report for BODC series reference number 81959
819601972-08-08 00:00 26° 20' 25" N  14° 49' 29" W  View metadata report for BODC series reference number 81960
819721972-08-08 01:00 26° 20' 25" N  14° 49' 29" W  View metadata report for BODC series reference number 81972
819841972-08-08 02:00 26° 20' 25" N  14° 49' 29" W  View metadata report for BODC series reference number 81984
819961972-08-08 03:00 26° 20' 25" N  14° 49' 29" W  View metadata report for BODC series reference number 81996
820111972-08-08 04:00 26° 20' 25" N  14° 49' 29" W  View metadata report for BODC series reference number 82011
820231972-08-08 05:00 26° 20' 25" N  14° 49' 29" W  View metadata report for BODC series reference number 82023
820351972-08-08 06:00 26° 20' 25" N  14° 49' 29" W  View metadata report for BODC series reference number 82035
820471972-08-08 07:00 26° 20' 25" N  14° 49' 29" W  View metadata report for BODC series reference number 82047
820591972-08-08 08:00 26° 20' 25" N  14° 49' 29" W  View metadata report for BODC series reference number 82059
820601972-08-08 09:00 26° 20' 25" N  14° 49' 29" W  View metadata report for BODC series reference number 82060
820721972-08-08 10:00 26° 20' 25" N  14° 49' 29" W  View metadata report for BODC series reference number 82072
820841972-08-08 11:00 26° 20' 25" N  14° 49' 29" W  View metadata report for BODC series reference number 82084
820961972-08-08 12:00 26° 20' 25" N  14° 49' 29" W  View metadata report for BODC series reference number 82096
821031972-08-08 13:00 26° 20' 25" N  14° 49' 29" W  View metadata report for BODC series reference number 82103
821151972-08-08 14:00 26° 20' 25" N  14° 49' 29" W  View metadata report for BODC series reference number 82115
821271972-08-08 15:00 26° 20' 25" N  14° 49' 29" W  View metadata report for BODC series reference number 82127
813821972-08-05 19:00 26° 20' 25" N  14° 49' 29" W  View metadata report for BODC series reference number 81382
813941972-08-05 20:00 26° 20' 25" N  14° 49' 29" W  View metadata report for BODC series reference number 81394
814011972-08-05 21:00 26° 20' 25" N  14° 49' 29" W  View metadata report for BODC series reference number 81401
814131972-08-05 22:00 26° 20' 25" N  14° 49' 29" W  View metadata report for BODC series reference number 81413
814251972-08-05 23:00 26° 20' 25" N  14° 49' 29" W  View metadata report for BODC series reference number 81425
814371972-08-06 00:00 26° 20' 25" N  14° 49' 29" W  View metadata report for BODC series reference number 81437
814491972-08-06 01:00 26° 20' 25" N  14° 49' 29" W  View metadata report for BODC series reference number 81449
814501972-08-06 02:00 26° 20' 25" N  14° 49' 29" W  View metadata report for BODC series reference number 81450
814621972-08-06 03:00 26° 20' 25" N  14° 49' 29" W  View metadata report for BODC series reference number 81462
814741972-08-06 04:00 26° 20' 25" N  14° 49' 29" W  View metadata report for BODC series reference number 81474
814861972-08-06 05:00 26° 20' 25" N  14° 49' 29" W  View metadata report for BODC series reference number 81486
814981972-08-06 06:00 26° 20' 25" N  14° 49' 29" W  View metadata report for BODC series reference number 81498
815051972-08-06 07:00 26° 20' 25" N  14° 49' 29" W  View metadata report for BODC series reference number 81505
815171972-08-06 08:00 26° 20' 25" N  14° 49' 29" W  View metadata report for BODC series reference number 81517
815291972-08-06 09:00 26° 20' 25" N  14° 49' 29" W  View metadata report for BODC series reference number 81529
815301972-08-06 10:00 26° 20' 25" N  14° 49' 29" W  View metadata report for BODC series reference number 81530
815421972-08-06 11:00 26° 20' 25" N  14° 49' 29" W  View metadata report for BODC series reference number 81542
815541972-08-06 12:00 26° 20' 25" N  14° 49' 29" W  View metadata report for BODC series reference number 81554
815661972-08-06 13:00 26° 20' 25" N  14° 49' 29" W  View metadata report for BODC series reference number 81566
815781972-08-06 14:00 26° 20' 25" N  14° 49' 29" W  View metadata report for BODC series reference number 81578
815911972-08-06 15:00 26° 20' 25" N  14° 49' 29" W  View metadata report for BODC series reference number 81591
816091972-08-06 16:00 26° 20' 25" N  14° 49' 29" W  View metadata report for BODC series reference number 81609
816101972-08-06 17:00 26° 20' 25" N  14° 49' 29" W  View metadata report for BODC series reference number 81610
816221972-08-06 18:00 26° 20' 25" N  14° 49' 29" W  View metadata report for BODC series reference number 81622
816341972-08-06 19:00 26° 20' 25" N  14° 49' 29" W  View metadata report for BODC series reference number 81634
816461972-08-06 20:00 26° 20' 25" N  14° 49' 29" W  View metadata report for BODC series reference number 81646
816581972-08-06 21:00 26° 20' 25" N  14° 49' 29" W  View metadata report for BODC series reference number 81658
816711972-08-06 22:00 26° 20' 25" N  14° 49' 29" W  View metadata report for BODC series reference number 81671
816831972-08-06 23:00 26° 20' 25" N  14° 49' 29" W  View metadata report for BODC series reference number 81683
816951972-08-07 00:00 26° 20' 25" N  14° 49' 29" W  View metadata report for BODC series reference number 81695
817021972-08-07 01:00 26° 20' 25" N  14° 49' 29" W  View metadata report for BODC series reference number 81702
817141972-08-07 02:00 26° 20' 25" N  14° 49' 29" W  View metadata report for BODC series reference number 81714
817261972-08-07 03:00 26° 20' 25" N  14° 49' 29" W  View metadata report for BODC series reference number 81726
817381972-08-07 04:00 26° 20' 25" N  14° 49' 29" W  View metadata report for BODC series reference number 81738
817511972-08-07 05:00 26° 20' 25" N  14° 49' 29" W  View metadata report for BODC series reference number 81751
817631972-08-07 06:00 26° 20' 25" N  14° 49' 29" W  View metadata report for BODC series reference number 81763
817751972-08-07 07:00 26° 20' 25" N  14° 49' 29" W  View metadata report for BODC series reference number 81775
817871972-08-07 08:00 26° 20' 25" N  14° 49' 29" W  View metadata report for BODC series reference number 81787
817991972-08-07 09:00 26° 20' 25" N  14° 49' 29" W  View metadata report for BODC series reference number 81799
818061972-08-07 10:00 26° 20' 25" N  14° 49' 29" W  View metadata report for BODC series reference number 81806
818181972-08-07 11:00 26° 20' 25" N  14° 49' 29" W  View metadata report for BODC series reference number 81818
818311972-08-07 12:00 26° 20' 25" N  14° 49' 29" W  View metadata report for BODC series reference number 81831
818431972-08-07 13:00 26° 20' 25" N  14° 49' 29" W  View metadata report for BODC series reference number 81843
818551972-08-07 14:00 26° 20' 25" N  14° 49' 29" W  View metadata report for BODC series reference number 81855
818671972-08-07 15:00 26° 20' 25" N  14° 49' 29" W  View metadata report for BODC series reference number 81867
818791972-08-07 16:00 26° 20' 25" N  14° 49' 29" W  View metadata report for BODC series reference number 81879
818801972-08-07 17:00 26° 20' 25" N  14° 49' 29" W  View metadata report for BODC series reference number 81880
818921972-08-07 18:00 26° 20' 25" N  14° 49' 29" W  View metadata report for BODC series reference number 81892
819111972-08-07 19:00 26° 20' 25" N  14° 49' 29" W  View metadata report for BODC series reference number 81911
819231972-08-07 20:00 26° 20' 25" N  14° 49' 29" W  View metadata report for BODC series reference number 81923
819351972-08-07 21:00 26° 20' 25" N  14° 49' 29" W  View metadata report for BODC series reference number 81935
819471972-08-07 22:00 26° 20' 25" N  14° 49' 29" W  View metadata report for BODC series reference number 81947
812411972-08-05 06:00 26° 20' 25" N  14° 49' 29" W  View metadata report for BODC series reference number 81241
812531972-08-05 07:00 26° 20' 25" N  14° 49' 29" W  View metadata report for BODC series reference number 81253
812891972-08-05 10:00 26° 20' 25" N  14° 49' 29" W  View metadata report for BODC series reference number 81289
812901972-08-05 11:00 26° 20' 25" N  14° 49' 29" W  View metadata report for BODC series reference number 81290
813081972-08-05 12:00 26° 20' 25" N  14° 49' 29" W  View metadata report for BODC series reference number 81308
813211972-08-05 13:00 26° 20' 25" N  14° 49' 29" W  View metadata report for BODC series reference number 81321
813331972-08-05 14:00 26° 20' 25" N  14° 49' 29" W  View metadata report for BODC series reference number 81333
813451972-08-05 15:00 26° 20' 25" N  14° 49' 29" W  View metadata report for BODC series reference number 81345
813571972-08-05 16:00 26° 20' 25" N  14° 49' 29" W  View metadata report for BODC series reference number 81357
813691972-08-05 17:00 26° 20' 25" N  14° 49' 29" W  View metadata report for BODC series reference number 81369
813701972-08-05 18:00 26° 20' 25" N  14° 49' 29" W  View metadata report for BODC series reference number 81370
806181972-08-02 05:00  — 1972-08-02 05:23 26° 19' 25" N  14° 39' 44" W  View metadata report for BODC series reference number 80618
806311972-08-02 06:12  — 1972-08-02 06:35 26° 15' 34" N  14° 37' 13" W  View metadata report for BODC series reference number 80631
806431972-08-02 07:22  — 1972-08-02 07:35 26° 12' 7" N  14° 31' 53" W  View metadata report for BODC series reference number 80643
806551972-08-02 08:25  — 1972-08-02 08:47 26° 8' 59" N  14° 38' 4" W  View metadata report for BODC series reference number 80655
806671972-08-02 09:53  — 1972-08-02 10:03 26° 12' 26" N  14° 43' 11" W  View metadata report for BODC series reference number 80667
806791972-08-02 10:54  — 1972-08-02 11:20 26° 16' 28" N  14° 45' 50" W  View metadata report for BODC series reference number 80679
806801972-08-02 12:22  — 1972-08-02 13:00 26° 20' 58" N  14° 48' 32" W  View metadata report for BODC series reference number 80680
806921972-08-02 13:50  — 1972-08-02 14:28 26° 25' 13" N  14° 50' 51" W  View metadata report for BODC series reference number 80692
807111972-08-02 15:21  — 1972-08-02 15:53 26° 21' 38" N  14° 57' 17" W  View metadata report for BODC series reference number 80711
807231972-08-02 16:40  — 1972-08-02 17:19 26° 17' 18" N  14° 53' 58" W  View metadata report for BODC series reference number 80723
807351972-08-02 18:18  — 1972-08-02 18:55 26° 12' 55" N  14° 50' 8" W  View metadata report for BODC series reference number 80735
807471972-08-02 19:50  — 1972-08-02 20:13 26° 8' 25" N  14° 46' 12" W  View metadata report for BODC series reference number 80747
807591972-08-02 21:08  — 1972-08-02 21:23 26° 5' 11" N  14° 41' 56" W  View metadata report for BODC series reference number 80759
807601972-08-02 22:10  — 1972-08-02 22:32 26° 1' 56" N  14° 46' 34" W  View metadata report for BODC series reference number 80760
807721972-08-02 23:40  — 1972-08-02 23:59 26° 6' 50" N  14° 50' 26" W  View metadata report for BODC series reference number 80772
807841972-08-03 01:08  — 1972-08-03 01:38 26° 10' 43" N  14° 55' 3" W  View metadata report for BODC series reference number 80784
807961972-08-03 02:40  — 1972-08-03 03:28 26° 14' 20" N  14° 57' 48" W  View metadata report for BODC series reference number 80796
808031972-08-03 04:20  — 1972-08-03 05:28 26° 17' 26" N  14° 54' 10" W  View metadata report for BODC series reference number 80803
808151972-08-03 06:15  — 1972-08-03 07:22 26° 13' 51" N  15° 6' 49" W  View metadata report for BODC series reference number 80815
808271972-08-03 08:10  — 1972-08-03 08:45 26° 9' 43" N  15° 2' 24" W  View metadata report for BODC series reference number 80827
808391972-08-03 09:30  — 1972-08-03 10:03 26° 7' 28" N  14° 59' 15" W  View metadata report for BODC series reference number 80839
808401972-08-03 10:54  — 1972-08-03 11:10 26° 3' 34" N  14° 54' 18" W  View metadata report for BODC series reference number 80840
808521972-08-03 12:09  — 1972-08-03 12:26 25° 58' 30" N  14° 50' 47" W  View metadata report for BODC series reference number 80852
808641972-08-12 19:38  — 1972-08-12 20:22 26° 28' 10" N  14° 48' 53" W  View metadata report for BODC series reference number 80864
808761972-08-12 21:10  — 1972-08-12 21:38 26° 22' 53" N  14° 44' 16" W  View metadata report for BODC series reference number 80876
808881972-08-12 22:29  — 1972-08-12 22:46 26° 18' 30" N  14° 40' 33" W  View metadata report for BODC series reference number 80888
809071972-08-12 23:19  — 1972-08-12 23:33 26° 14' 45" N  14° 38' 12" W  View metadata report for BODC series reference number 80907
809191972-08-13 00:10  — 1972-08-13 00:28 26° 10' 41" N  14° 34' 23" W  View metadata report for BODC series reference number 80919
809201972-08-13 01:07  — 1972-08-13 01:25 26° 6' 39" N  14° 39' 3" W  View metadata report for BODC series reference number 80920
809321972-08-13 02:10  — 1972-08-13 02:35 26° 10' 18" N  14° 43' 55" W  View metadata report for BODC series reference number 80932
809441972-08-13 03:20  — 1972-08-13 03:59 26° 14' 45" N  14° 47' 14" W  View metadata report for BODC series reference number 80944
809561972-08-13 05:06  — 1972-08-13 05:48 26° 17' 53" N  14° 50' 56" W  View metadata report for BODC series reference number 80956
809681972-08-13 06:42  — 1972-08-13 07:14 26° 22' 34" N  14° 52' 15" W  View metadata report for BODC series reference number 80968
809811972-08-13 08:10  — 1972-08-13 08:41 26° 14' 39" N  14° 52' 35" W  View metadata report for BODC series reference number 80981
809931972-08-13 09:11  — 1972-08-13 09:30 26° 13' 11" N  14° 48' 48" W  View metadata report for BODC series reference number 80993
812651972-08-05 08:00 26° 20' 25" N  14° 49' 29" W  View metadata report for BODC series reference number 81265
812771972-08-05 09:00 26° 20' 25" N  14° 49' 29" W  View metadata report for BODC series reference number 81277
810071972-08-13 10:06  — 1972-08-13 10:21 26° 9' 33" N  14° 44' 38" W  View metadata report for BODC series reference number 81007
810191972-08-13 10:57  — 1972-08-13 11:12 26° 5' 58" N  14° 40' 33" W  View metadata report for BODC series reference number 81019
810201972-08-13 11:51  — 1972-08-13 12:03 26° 1' 35" N  14° 36' 19" W  View metadata report for BODC series reference number 81020
810321972-08-13 12:46  — 1972-08-13 13:06 25° 57' 23" N  14° 43' 1" W  View metadata report for BODC series reference number 81032
810441972-08-13 13:45  — 1972-08-13 14:08 26° 0' 59" N  14° 48' 20" W  View metadata report for BODC series reference number 81044
810561972-08-13 14:45  — 1972-08-13 15:13 26° 4' 33" N  14° 53' 23" W  View metadata report for BODC series reference number 81056
810681972-08-13 16:10  — 1972-08-13 16:43 26° 8' 14" N  14° 57' 57" W  View metadata report for BODC series reference number 81068
810811972-08-13 18:00  — 1972-08-13 18:43 26° 11' 54" N  15° 2' 38" W  View metadata report for BODC series reference number 81081
810931972-08-13 19:22  — 1972-08-13 19:46 26° 7' 59" N  15° 8' 32" W  View metadata report for BODC series reference number 81093
811001972-08-13 20:42  — 1972-08-13 21:16 26° 5' 32" N  15° 1' 40" W  View metadata report for BODC series reference number 81100
811121972-08-13 22:20  — 1972-08-13 22:47 26° 1' 8" N  14° 54' 25" W  View metadata report for BODC series reference number 81112
811241972-08-13 23:25  — 1972-08-13 23:47 25° 59' 4" N  14° 52' 5" W  View metadata report for BODC series reference number 81124
811361972-08-14 00:24  — 1972-08-14 00:44 25° 54' 45" N  14° 48' 51" W  View metadata report for BODC series reference number 81136
811481972-08-04 22:00 26° 20' 25" N  14° 49' 29" W  View metadata report for BODC series reference number 81148
811611972-08-04 23:00 26° 20' 25" N  14° 49' 29" W  View metadata report for BODC series reference number 81161
811731972-08-05 00:00 26° 20' 25" N  14° 49' 29" W  View metadata report for BODC series reference number 81173
811851972-08-05 01:00 26° 20' 25" N  14° 49' 29" W  View metadata report for BODC series reference number 81185
811971972-08-05 02:00 26° 20' 25" N  14° 49' 29" W  View metadata report for BODC series reference number 81197
812041972-08-05 03:00 26° 20' 25" N  14° 49' 29" W  View metadata report for BODC series reference number 81204
812161972-08-05 04:00 26° 20' 25" N  14° 49' 29" W  View metadata report for BODC series reference number 81216
812281972-08-05 05:00 26° 20' 25" N  14° 49' 29" W  View metadata report for BODC series reference number 81228
805991972-08-02 01:45  — 1972-08-02 02:24 26° 27' 14" N  14° 48' 17" W  View metadata report for BODC series reference number 80599
806061972-08-02 03:16  — 1972-08-02 04:02 26° 23' 38" N  14° 44' 5" W  View metadata report for BODC series reference number 80606
830631972-08-10 16:30 26° 9' 13" N  14° 44' 5" W  View metadata report for BODC series reference number 83063
830751972-08-10 17:00 26° 9' 13" N  14° 44' 5" W  View metadata report for BODC series reference number 83075
830871972-08-10 17:30 26° 9' 13" N  14° 44' 5" W  View metadata report for BODC series reference number 83087
830991972-08-10 18:00 26° 9' 13" N  14° 44' 5" W  View metadata report for BODC series reference number 83099
831061972-08-10 18:30 26° 9' 13" N  14° 44' 5" W  View metadata report for BODC series reference number 83106
831181972-08-10 19:00 26° 9' 13" N  14° 44' 5" W  View metadata report for BODC series reference number 83118
831311972-08-10 19:30 26° 9' 13" N  14° 44' 5" W  View metadata report for BODC series reference number 83131